createdAt,value
2022-09-20T12:12:32.791Z,17.30
2022-09-20T12:15:06.231Z,16.74
2022-09-20T12:17:49.488Z,16.50
2022-09-20T12:22:47.713Z,15.53
2022-09-20T12:26:15.402Z,15.27
2022-09-20T12:28:56.266Z,15.11
2022-09-20T12:31:34.306Z,15.32
2022-09-20T12:34:28.489Z,15.18
2022-09-20T12:36:58.296Z,15.11
2022-09-20T12:39:38.796Z,14.72
2022-09-20T12:42:12.294Z,14.76
2022-09-20T12:44:43.577Z,14.91
2022-09-20T12:47:10.157Z,14.86
2022-09-20T12:50:07.812Z,14.67
2022-09-20T12:54:59.467Z,14.18
2022-09-20T12:57:35.568Z,13.95
2022-09-20T13:00:07.079Z,13.90
2022-09-20T13:02:52.839Z,14.18
2022-09-20T13:05:42.683Z,14.19
2022-09-20T13:08:13.102Z,14.37
2022-09-20T13:10:50.510Z,14.64
2022-09-20T13:13:35.592Z,14.70
2022-09-20T13:16:06.392Z,14.89
2022-09-20T13:18:36.198Z,15.13
2022-09-20T13:21:07.150Z,15.38
2022-09-20T13:23:45.565Z,15.49
2022-09-20T13:26:14.710Z,15.44
2022-09-20T13:28:54.218Z,15.73
2022-09-20T13:31:20.741Z,15.40
2022-09-20T13:33:48.591Z,15.06
2022-09-20T13:36:21.953Z,16.03
2022-09-20T13:38:49.447Z,17.45
2022-09-20T13:41:18.422Z,17.25
2022-09-20T13:43:49.995Z,17.53
2022-09-20T13:46:33.793Z,17.45
2022-09-20T13:49:21.259Z,18.10
2022-09-20T13:51:49.681Z,18.96
2022-09-20T13:54:33.251Z,17.97
2022-09-20T13:57:06.492Z,17.81
2022-09-20T13:59:44.870Z,19.76
2022-09-20T14:02:32.126Z,20.95
2022-09-20T14:05:06.042Z,22.24
2022-09-20T14:07:36.353Z,22.28
2022-09-20T14:10:04.675Z,21.82
2022-09-20T14:12:33.882Z,20.48
2022-09-20T14:15:08.671Z,19.37
2022-09-20T14:17:36.875Z,19.28
2022-09-20T14:20:06.039Z,20.32
2022-09-20T14:22:33.787Z,20.53
2022-09-20T14:25:25.236Z,20.04
2022-09-20T14:28:19.683Z,19.10
2022-09-20T14:30:48.720Z,18.91
2022-09-20T14:33:21.272Z,18.90
2022-09-20T14:35:52.659Z,18.78
2022-09-20T14:38:26.270Z,18.95
2022-09-20T14:40:53.935Z,18.76
2022-09-20T14:43:33.807Z,18.44
2022-09-20T14:46:17.453Z,17.84
2022-09-20T14:48:45.691Z,17.19
2022-09-20T14:51:40.456Z,16.75
2022-09-20T14:54:08.228Z,16.48
2022-09-20T14:56:40.620Z,16.13
2022-09-20T14:59:59.222Z,15.82
2022-09-20T15:02:27.365Z,15.53
2022-09-20T15:05:27.078Z,15.24
2022-09-20T15:07:58.593Z,15.03
2022-09-20T15:12:21.388Z,14.86
2022-09-20T15:14:49.089Z,14.86
2022-09-20T15:17:20.648Z,14.77
2022-09-20T15:19:50.096Z,14.79
2022-09-20T15:25:38.358Z,14.51
2022-09-20T15:30:23.706Z,14.45
2022-09-20T15:32:52.835Z,14.38
2022-09-20T15:35:20.411Z,14.29
2022-09-20T15:37:48.370Z,14.28
2022-09-20T15:41:12.839Z,14.16
2022-09-20T15:43:43.848Z,14.06
2022-09-20T15:46:43.683Z,14.04
2022-09-20T15:49:21.794Z,13.91
2022-09-20T15:51:50.426Z,13.87
2022-09-20T15:54:19.742Z,13.74
2022-09-20T15:58:25.852Z,13.45
2022-09-20T16:00:52.530Z,13.46
2022-09-20T16:03:19.092Z,13.37
2022-09-20T16:05:49.636Z,13.31
2022-09-20T16:08:18.604Z,13.25
2022-09-20T16:10:59.085Z,13.35
2022-09-20T16:13:26.374Z,13.51
2022-09-20T16:15:58.412Z,13.78
2022-09-20T16:18:44.215Z,14.11
2022-09-20T16:21:21.059Z,14.26
2022-09-20T16:24:02.585Z,14.26
2022-09-20T16:26:32.620Z,14.03
2022-09-20T16:29:00.910Z,13.92
2022-09-20T16:31:50.327Z,13.84
2022-09-20T16:35:28.847Z,13.72
2022-09-20T16:38:16.655Z,13.53
2022-09-20T16:41:09.040Z,13.45
2022-09-20T16:43:37.994Z,13.27
2022-09-20T16:46:05.606Z,12.90
2022-09-20T16:48:33.152Z,12.38
2022-09-20T16:51:24.599Z,12.26
2022-09-20T16:54:17.147Z,11.99
2022-09-20T16:57:05.156Z,11.85
2022-09-20T16:59:55.703Z,11.78
2022-09-20T17:02:47.713Z,11.74
2022-09-20T17:05:36.177Z,11.82
2022-09-20T17:08:23.757Z,11.81
2022-09-20T17:11:16.929Z,11.88
2022-09-20T17:14:06.281Z,11.85
2022-09-20T17:16:54.010Z,11.78
2022-09-20T17:19:42.125Z,11.75
2022-09-20T17:22:29.713Z,11.47
2022-09-20T17:25:17.393Z,11.42
2022-09-20T17:28:03.457Z,11.19
2022-09-20T17:30:33.018Z,11.17
2022-09-20T17:33:20.851Z,11.05
2022-09-20T17:36:13.391Z,10.94
2022-09-20T17:39:04.375Z,10.73
2022-09-20T17:41:52.706Z,10.77
2022-09-20T17:44:20.553Z,10.73
2022-09-20T17:47:10.840Z,10.83
2022-09-20T17:49:58.424Z,10.85
2022-09-20T17:52:46.030Z,10.80
2022-09-20T17:55:34.184Z,10.72
2022-09-20T17:58:22.657Z,10.62
2022-09-20T18:01:18.379Z,10.56
2022-09-20T18:04:07.636Z,10.56
2022-09-20T18:06:44.506Z,10.34
2022-09-20T18:09:32.385Z,10.34
2022-09-20T18:12:00.069Z,10.35
2022-09-20T18:14:30.071Z,10.45
2022-09-20T18:17:17.682Z,10.35
2022-09-20T18:20:06.080Z,10.38
2022-09-20T18:22:35.716Z,10.30
2022-09-20T18:25:03.353Z,10.41
2022-09-20T18:27:51.005Z,10.34
2022-09-20T18:30:40.026Z,10.43
2022-09-20T18:33:28.108Z,10.40
2022-09-20T18:36:16.550Z,10.42
2022-09-20T18:39:04.186Z,10.37
2022-09-20T18:41:35.308Z,10.29
2022-09-20T18:44:04.364Z,10.21
2022-09-20T18:46:53.387Z,10.24
2022-09-20T18:49:41.085Z,10.22
2022-09-20T18:52:10.691Z,10.13
2022-09-20T18:54:39.069Z,10.06
2022-09-20T18:57:27.044Z,10.13
2022-09-20T19:00:15.106Z,10.08
2022-09-20T19:03:12.934Z,10.01
2022-09-20T19:06:08.527Z,10.05
2022-09-20T19:09:14.854Z,10.08
2022-09-20T19:11:55.263Z,10.12
2022-09-20T19:15:04.228Z,10.11
2022-09-20T19:18:12.536Z,9.87
2022-09-20T19:21:23.546Z,9.83
2022-09-20T19:24:17.353Z,9.84
2022-09-20T19:27:06.091Z,9.89
2022-09-20T19:29:54.442Z,9.93
2022-09-20T19:32:44.009Z,9.98
2022-09-20T19:35:40.056Z,9.98
2022-09-20T19:39:19.159Z,9.99
2022-09-20T19:42:27.330Z,10.03
2022-09-20T19:45:43.666Z,10.08
2022-09-20T19:48:40.165Z,10.16
2022-09-20T19:51:12.825Z,10.08
2022-09-20T19:54:04.585Z,9.87
2022-09-20T19:56:56.504Z,10.02
2022-09-20T19:59:44.384Z,10.00
2022-09-20T20:02:12.711Z,9.99
2022-09-20T20:05:00.692Z,9.94
2022-09-20T20:08:25.590Z,9.99
2022-09-20T20:11:46.133Z,9.92
2022-09-20T20:14:40.253Z,10.02
2022-09-20T20:17:41.112Z,10.08
2022-09-20T20:20:42.372Z,10.05
2022-09-20T20:23:57.818Z,9.95
2022-09-20T20:26:45.605Z,9.69
2022-09-20T20:29:33.286Z,9.49
2022-09-20T20:32:00.826Z,9.36
2022-09-20T20:34:48.438Z,9.37
2022-09-20T20:37:36.060Z,9.26
2022-09-20T20:40:04.003Z,9.11
2022-09-20T20:42:31.562Z,9.16
2022-09-20T20:44:59.032Z,9.10
2022-09-20T20:47:48.596Z,9.23
2022-09-20T20:50:36.217Z,9.26
2022-09-20T20:53:04.821Z,9.21
2022-09-20T20:55:32.277Z,9.28
2022-09-20T20:57:59.849Z,9.28
2022-09-20T21:00:28.355Z,9.30
2022-09-20T21:03:15.908Z,9.36
2022-09-20T21:05:43.793Z,9.41
2022-09-20T21:08:11.539Z,9.48
2022-09-20T21:10:39.031Z,9.51
2022-09-20T21:13:26.608Z,9.51
2022-09-20T21:16:18.435Z,9.50
2022-09-20T21:18:48.654Z,9.55
2022-09-20T21:21:40.207Z,9.50
2022-09-20T21:24:27.852Z,9.48
2022-09-20T21:27:15.713Z,9.49
2022-09-20T21:30:05.081Z,9.54
2022-09-20T21:32:56.058Z,9.57
2022-09-20T21:35:43.786Z,9.53
2022-09-20T21:38:35.012Z,9.49
2022-09-20T21:41:27.389Z,9.52
2022-09-20T21:44:14.942Z,9.37
2022-09-20T21:46:42.497Z,9.26
2022-09-20T21:49:12.150Z,9.13
2022-09-20T21:51:59.963Z,8.93
2022-09-20T21:54:47.555Z,9.03
2022-09-20T21:57:35.143Z,9.06
2022-09-20T22:00:02.795Z,9.04
2022-09-20T22:02:30.286Z,9.06
2022-09-20T22:05:17.914Z,8.89
2022-09-20T22:08:05.496Z,8.67
2022-09-20T22:10:57.877Z,8.31
2022-09-20T22:13:25.916Z,8.38
2022-09-20T22:15:53.485Z,8.44
2022-09-20T22:18:21.023Z,8.64
2022-09-20T22:21:15.783Z,8.62
2022-09-20T22:24:07.793Z,8.58
2022-09-20T22:26:55.577Z,8.60
2022-09-20T22:29:43.152Z,8.65
2022-09-20T22:32:14.737Z,8.64
2022-09-20T22:35:02.366Z,8.67
2022-09-20T22:37:52.092Z,8.68
2022-09-20T22:40:39.719Z,8.50
2022-09-20T22:43:28.653Z,8.11
2022-09-20T22:46:22.831Z,7.93
2022-09-20T22:49:10.673Z,7.87
2022-09-20T22:51:58.279Z,7.90
2022-09-20T22:54:46.979Z,8.01
2022-09-20T22:57:14.837Z,8.02
2022-09-20T22:59:42.305Z,7.97
2022-09-20T23:02:09.778Z,7.70
2022-09-20T23:04:57.356Z,7.57
2022-09-20T23:07:48.783Z,7.70
2022-09-20T23:10:16.387Z,7.71
2022-09-20T23:12:43.887Z,7.76
2022-09-20T23:15:31.478Z,7.83
2022-09-20T23:18:19.110Z,7.98
2022-09-20T23:20:47.813Z,8.04
2022-09-20T23:23:23.456Z,8.12
2022-09-20T23:25:51.165Z,8.08
2022-09-20T23:28:42.691Z,7.97
2022-09-20T23:31:34.534Z,8.01
2022-09-20T23:34:22.148Z,8.02
2022-09-20T23:36:49.787Z,8.16
2022-09-20T23:39:17.354Z,8.07
2022-09-20T23:41:48.565Z,8.00
2022-09-20T23:44:37.666Z,7.74
2022-09-20T23:47:25.276Z,7.56
2022-09-20T23:50:13.633Z,7.58
2022-09-20T23:52:41.302Z,7.65
2022-09-20T23:55:08.948Z,7.71
2022-09-20T23:57:57.739Z,7.72
